Dades meteomassalio
Diari Summary for Febrer 26, 2017 Units:  Metric    English   Both
« Previous Day
Next Day »
Diari Semanal Mensual Anual Personalitzat
  Maxima: Minima: Mijana:
Temperatura: 17.7 °C -0.1 °C 7.7 °C
Rosada: 6.2 °C -1.1 °C 2.8 °C
Humitat: 93 % 42 % 74 %
Velocitat del vent: 13.0 km/h 0.0 km/h 1.3 km/h
Racha vent: 13.0 km/h - -
Vent:- - East
Pressio: 1023.9 hPa 1018.5 hPa -
Pluja: 0.0 mm    
Historical Graphs
 
 
Tabular Data for Febrer 26, 2017
Time Temperature Dew Point Pressure Wind Wind Speed Wind Gust Humidity Rainfall Rate (Hourly) solar Conditions
00:01 3.2 °C 1.4 °C 1022.2 hPa Calm     88 % 0.0 mm 0.0 W/m2 CLR
00:06 3.2 °C 1.4 °C 1022.2 hPa Calm     88 % 0.0 mm 0.0 W/m2 CLR
00:11 3.1 °C 1.3 °C 1022.2 hPa Calm     88 % 0.0 mm 0.0 W/m2 CLR
00:17 2.9 °C 1.2 °C 1022.2 hPa Calm     88 % 0.0 mm 0.0 W/m2 CLR
00:22 2.8 °C 1.1 °C 1022.2 hPa Calm     88 % 0.0 mm 0.0 W/m2 CLR
00:27 2.7 °C 0.9 °C 1022.2 hPa Calm     88 % 0.0 mm 0.0 W/m2 CLR
00:32 2.7 °C 0.9 °C 1022.2 hPa Calm     88 % 0.0 mm 0.0 W/m2 CLR
00:37 2.6 °C 0.9 °C 1022.2 hPa Calm     89 % 0.0 mm 0.0 W/m2 CLR
00:42 2.4 °C 0.8 °C 1022.6 hPa Calm     89 % 0.0 mm 0.0 W/m2 CLR
00:47 2.4 °C 0.8 °C 1022.6 hPa Calm     89 % 0.0 mm 0.0 W/m2 CLR
00:52 2.3 °C 0.7 °C 1022.6 hPa Calm     89 % 0.0 mm 0.0 W/m2 CLR
00:57 2.3 °C 0.7 °C 1022.6 hPa Calm     89 % 0.0 mm 0.0 W/m2 CLR
01:02 2.2 °C 0.6 °C 1022.6 hPa Calm     89 % 0.0 mm 0.0 W/m2 CLR
01:07 2.2 °C 0.8 °C 1022.6 hPa Calm     90 % 0.0 mm 0.0 W/m2 CLR
01:12 2.2 °C 0.8 °C 1022.6 hPa SW 5.6 km/h 5.6 km/h 90 % 0.0 mm 0.0 W/m2 CLR
01:17 2.3 °C 0.8 °C 1022.6 hPa SW 5.6 km/h 5.6 km/h 90 % 0.0 mm 0.0 W/m2 CLR
01:22 2.3 °C 0.8 °C 1022.6 hPa Calm     90 % 0.0 mm 0.0 W/m2 CLR
01:27 2.3 °C 0.8 °C 1022.6 hPa Calm     90 % 0.0 mm 0.0 W/m2 CLR
01:32 2.3 °C 0.8 °C 1022.6 hPa Calm     90 % 0.0 mm 0.0 W/m2 CLR
01:37 2.2 °C 0.7 °C 1022.6 hPa Calm     90 % 0.0 mm 0.0 W/m2 CLR
01:42 2.1 °C 0.6 °C 1022.6 hPa Calm     90 % 0.0 mm 0.0 W/m2 CLR
01:47 1.9 °C 0.5 °C 1022.6 hPa Calm     90 % 0.0 mm 0.0 W/m2 CLR
01:52 1.9 °C 0.5 °C 1022.6 hPa Calm     90 % 0.0 mm 0.0 W/m2 CLR
01:57 1.9 °C 0.4 °C 1022.9 hPa Calm     90 % 0.0 mm 0.0 W/m2 CLR
02:02 1.9 °C 0.4 °C 1022.9 hPa Calm     90 % 0.0 mm 0.0 W/m2 CLR
02:07 1.9 °C 0.4 °C 1022.9 hPa Calm     90 % 0.0 mm 0.0 W/m2 CLR
02:12 1.8 °C 0.4 °C 1022.9 hPa Calm     90 % 0.0 mm 0.0 W/m2 CLR
02:17 1.8 °C 0.4 °C 1022.6 hPa Calm     91 % 0.0 mm 0.0 W/m2 CLR
02:22 1.8 °C 0.4 °C 1022.6 hPa Calm     91 % 0.0 mm 0.0 W/m2 CLR
02:27 1.8 °C 0.4 °C 1022.6 hPa Calm     91 % 0.0 mm 0.0 W/m2 CLR
02:32 1.7 °C 0.4 °C 1022.6 hPa Calm     91 % 0.0 mm 0.0 W/m2 CLR
02:37 1.6 °C 0.1 °C 1022.6 hPa Calm     90 % 0.0 mm 0.0 W/m2 CLR
02:42 1.4 °C 0.0 °C 1022.6 hPa Calm     90 % 0.0 mm 0.0 W/m2 CLR
02:47 1.4 °C 0.1 °C 1022.6 hPa Calm     91 % 0.0 mm 0.0 W/m2 CLR
02:49 1.3 °C 0.0 °C 1022.6 hPa Calm     91 % 0.0 mm 0.0 W/m2 CLR
02:54 1.3 °C -0.1 °C 1022.6 hPa Calm     91 % 0.0 mm 0.0 W/m2 CLR
02:59 1.2 °C -0.1 °C 1022.6 hPa Calm     91 % 0.0 mm 0.0 W/m2 CLR
03:04 1.2 °C -0.1 °C 1022.6 hPa Calm     91 % 0.0 mm 0.0 W/m2 CLR
03:09 1.2 °C -0.2 °C 1022.6 hPa Calm     91 % 0.0 mm 0.0 W/m2 CLR
03:14 1.1 °C -0.2 °C 1022.6 hPa Calm     91 % 0.0 mm 0.0 W/m2 CLR
03:19 1.1 °C -0.2 °C 1022.6 hPa Calm     91 % 0.0 mm 0.0 W/m2 CLR
03:24 1.0 °C -0.3 °C 1022.6 hPa Calm     91 % 0.0 mm 0.0 W/m2 CLR
03:29 1.1 °C -0.1 °C 1022.6 hPa Calm     92 % 0.0 mm 0.0 W/m2 CLR
03:34 1.1 °C -0.1 °C 1022.6 hPa Calm     92 % 0.0 mm 0.0 W/m2 CLR
03:39 1.1 °C -0.1 °C 1022.6 hPa Calm     92 % 0.0 mm 0.0 W/m2 CLR
03:44 1.2 °C 0.0 °C 1022.6 hPa Calm     92 % 0.0 mm 0.0 W/m2 CLR
03:49 1.1 °C -0.1 °C 1022.6 hPa Calm     92 % 0.0 mm 0.0 W/m2 CLR
03:54 0.8 °C -0.4 °C 1022.6 hPa Calm     91 % 0.0 mm 0.0 W/m2 CLR
03:59 0.8 °C -0.4 °C 1022.6 hPa Calm     92 % 0.0 mm 0.0 W/m2 CLR
04:04 0.7 °C -0.4 °C 1022.6 hPa Calm     92 % 0.0 mm 0.0 W/m2 CLR
04:09 0.7 °C -0.5 °C 1022.2 hPa Calm     92 % 0.0 mm 0.0 W/m2 CLR
04:14 0.6 °C -0.7 °C 1022.6 hPa Calm     91 % 0.0 mm 0.0 W/m2 CLR
04:19 0.5 °C -0.8 °C 1022.2 hPa Calm     91 % 0.0 mm 0.0 W/m2 CLR
04:24 0.5 °C -0.7 °C 1022.6 hPa Calm     92 % 0.0 mm 0.0 W/m2 CLR
04:29 0.5 °C -0.7 °C 1022.6 hPa Calm     92 % 0.0 mm 0.0 W/m2 CLR
04:34 0.6 °C -0.6 °C 1022.6 hPa Calm     92 % 0.0 mm 0.0 W/m2 CLR
04:39 0.5 °C -0.7 °C 1022.6 hPa Calm     92 % 0.0 mm 0.0 W/m2 CLR
04:44 0.4 °C -0.7 °C 1022.6 hPa Calm     92 % 0.0 mm 0.0 W/m2 CLR
04:49 0.4 °C -0.7 °C 1022.6 hPa Calm     92 % 0.0 mm 0.0 W/m2 CLR
04:54 0.4 °C -0.7 °C 1022.6 hPa Calm     92 % 0.0 mm 0.0 W/m2 CLR
04:59 0.4 °C -0.8 °C 1022.6 hPa Calm     92 % 0.0 mm 0.0 W/m2 CLR
05:04 0.4 °C -0.8 °C 1022.6 hPa Calm     92 % 0.0 mm 0.0 W/m2 CLR
05:09 0.3 °C -0.8 °C 1022.6 hPa Calm     92 % 0.0 mm 0.0 W/m2 CLR
05:14 0.3 °C -0.8 °C 1022.6 hPa Calm     92 % 0.0 mm 0.0 W/m2 CLR
05:19 0.2 °C -0.9 °C 1022.6 hPa Calm     92 % 0.0 mm 0.0 W/m2 CLR
05:24 0.2 °C -0.9 °C 1022.9 hPa Calm     92 % 0.0 mm 0.0 W/m2 CLR
05:29 0.3 °C -0.9 °C 1022.6 hPa Calm     92 % 0.0 mm 0.0 W/m2 CLR
05:34 0.3 °C -0.9 °C 1022.9 hPa Calm     92 % 0.0 mm 0.0 W/m2 CLR
05:39 0.4 °C -0.6 °C 1022.9 hPa Calm     93 % 0.0 mm 0.0 W/m2 CLR
05:44 0.4 °C -0.6 °C 1022.9 hPa Calm     93 % 0.0 mm 0.0 W/m2 CLR
05:49 0.5 °C -0.5 °C 1022.9 hPa Calm     93 % 0.0 mm 0.0 W/m2 CLR
05:54 0.6 °C -0.4 °C 1022.9 hPa Calm     93 % 0.0 mm 0.0 W/m2 CLR
05:59 0.6 °C -0.4 °C 1022.9 hPa Calm     93 % 0.0 mm 0.0 W/m2 CLR
06:05 0.7 °C -0.3 °C 1022.9 hPa Calm     93 % 0.0 mm 0.0 W/m2 CLR
06:10 0.7 °C -0.3 °C 1022.9 hPa Calm     93 % 0.0 mm 0.0 W/m2 CLR
06:15 0.7 °C -0.3 °C 1022.9 hPa Calm     93 % 0.0 mm 0.0 W/m2 CLR
06:20 0.7 °C -0.3 °C 1023.2 hPa Calm     93 % 0.0 mm 0.0 W/m2 CLR
06:25 0.6 °C -0.4 °C 1023.2 hPa Calm     93 % 0.0 mm 0.0 W/m2 CLR
06:30 0.4 °C -0.7 °C 1023.2 hPa Calm     92 % 0.0 mm 0.0 W/m2 CLR
06:35 0.3 °C -0.8 °C 1023.2 hPa Calm     92 % 0.0 mm 0.0 W/m2 CLR
06:40 0.2 °C -0.9 °C 1023.2 hPa Calm     92 % 0.0 mm 0.0 W/m2 CLR
06:45 0.2 °C -1.0 °C 1023.2 hPa Calm     92 % 0.0 mm 0.0 W/m2 CLR
06:50 0.1 °C -0.9 °C 1023.2 hPa Calm     93 % 0.0 mm 0.0 W/m2 CLR
06:55 0.1 °C -0.9 °C 1023.2 hPa Calm     93 % 0.0 mm 0.0 W/m2 CLR
07:00 0.1 °C -0.9 °C 1023.2 hPa Calm     93 % 0.0 mm 0.0 W/m2 CLR
07:05 0.1 °C -0.9 °C 1023.2 hPa Calm     93 % 0.0 mm 0.0 W/m2 CLR
07:10 0.0 °C -1.0 °C 1023.2 hPa Calm     93 % 0.0 mm 0.0 W/m2 CLR
07:15 0.0 °C -1.0 °C 1023.2 hPa SW 4.8 km/h 4.8 km/h 93 % 0.0 mm 0.0 W/m2 CLR
07:20 0.2 °C -0.8 °C 1023.2 hPa SW 5.6 km/h 5.6 km/h 93 % 0.0 mm 0.0 W/m2 CLR
07:25 0.3 °C -0.7 °C 1023.2 hPa Calm     93 % 0.0 mm 0.0 W/m2 CLR
07:30 0.2 °C -0.8 °C 1023.2 hPa Calm     93 % 0.0 mm 0.0 W/m2 OVC
07:35 0.1 °C -0.9 °C 1023.2 hPa Calm     93 % 0.0 mm 0.0 W/m2 OVC
07:40 0.0 °C -1.0 °C 1023.2 hPa Calm     93 % 0.0 mm 5.0 W/m2 OVC
07:45 -0.1 °C -1.1 °C 1023.2 hPa Calm     93 % 0.0 mm 9.0 W/m2 BKN
07:50 0.0 °C -1.0 °C 1023.2 hPa Calm     93 % 0.0 mm 12.0 W/m2 BKN
07:55 0.1 °C -0.9 °C 1023.6 hPa Calm     93 % 0.0 mm 16.0 W/m2 BKN
08:00 0.2 °C -0.8 °C 1023.6 hPa Calm     93 % 0.0 mm 18.0 W/m2 BKN
08:05 0.3 °C -0.7 °C 1023.6 hPa Calm     93 % 0.0 mm 23.0 W/m2 BKN
08:10 0.3 °C -0.7 °C 1023.6 hPa Calm     93 % 0.0 mm 33.0 W/m2 BKN
08:15 0.4 °C -0.6 °C 1023.6 hPa Calm     93 % 0.0 mm 44.0 W/m2 BKN
08:20 0.6 °C -0.4 °C 1023.6 hPa Calm     93 % 0.0 mm 54.0 W/m2 SCT
08:25 0.8 °C -0.2 °C 1023.9 hPa Calm     93 % 0.0 mm 58.0 W/m2 SCT
08:30 1.1 °C 0.1 °C 1023.9 hPa Calm     93 % 0.0 mm 62.0 W/m2 SCT
08:36 1.4 °C 0.4 °C 1023.9 hPa Calm     93 % 0.0 mm 83.0 W/m2 CLR
08:40 1.8 °C 0.8 °C 1023.9 hPa Calm     93 % 0.0 mm 90.0 W/m2 FEW
08:46 2.0 °C 1.0 °C 1023.9 hPa Calm     93 % 0.0 mm 109.0 W/m2 CLR
08:51 2.2 °C 1.0 °C 1023.9 hPa Calm     92 % 0.0 mm 128.0 W/m2 CLR
08:56 2.4 °C 1.2 °C 1023.9 hPa Calm     92 % 0.0 mm 111.0 W/m2 CLR
09:01 2.8 °C 1.7 °C 1023.9 hPa Calm     92 % 0.0 mm 128.0 W/m2 CLR
09:06 3.1 °C 1.8 °C 1023.9 hPa Calm     91 % 0.0 mm 192.0 W/m2 CLR
09:11 3.6 °C 2.2 °C 1023.9 hPa Calm     91 % 0.0 mm 207.0 W/m2 CLR
09:16 4.0 °C 2.5 °C 1023.9 hPa Calm     90 % 0.0 mm 227.0 W/m2 CLR
09:21 4.5 °C 3.0 °C 1023.6 hPa Calm     90 % 0.0 mm 234.0 W/m2 CLR
09:26 5.0 °C 3.3 °C 1023.9 hPa Calm     89 % 0.0 mm 251.0 W/m2 CLR
09:31 5.4 °C 3.4 °C 1023.9 hPa Calm     87 % 0.0 mm 265.0 W/m2 CLR
09:36 6.0 °C 3.7 °C 1023.9 hPa Calm     85 % 0.0 mm 285.0 W/m2 CLR
09:41 6.3 °C 3.5 °C 1023.6 hPa Calm     82 % 0.0 mm 302.0 W/m2 CLR
09:46 6.4 °C 3.2 °C 1023.6 hPa Calm     80 % 0.0 mm 316.0 W/m2 CLR
09:51 6.6 °C 3.6 °C 1023.6 hPa Calm     81 % 0.0 mm 332.0 W/m2 CLR
09:56 6.8 °C 3.4 °C 1023.6 hPa Calm     79 % 0.0 mm 345.0 W/m2 CLR
10:01 7.1 °C 3.5 °C 1023.6 hPa Calm     78 % 0.0 mm 362.0 W/m2 CLR
10:06 7.4 °C 4.0 °C 1023.6 hPa Calm     79 % 0.0 mm 376.0 W/m2 CLR
10:11 8.0 °C 4.2 °C 1023.6 hPa Calm     77 % 0.0 mm 390.0 W/m2 CLR
10:16 8.7 °C 4.3 °C 1023.6 hPa Calm     74 % 0.0 mm 403.0 W/m2 CLR
10:21 9.2 °C 4.2 °C 1023.6 hPa Calm     71 % 0.0 mm 415.0 W/m2 CLR
10:26 9.4 °C 4.1 °C 1023.6 hPa Calm     69 % 0.0 mm 434.0 W/m2 CLR
10:31 9.5 °C 3.7 °C 1023.6 hPa Calm     67 % 0.0 mm 452.0 W/m2 CLR
10:36 9.6 °C 4.2 °C 1023.6 hPa Calm     69 % 0.0 mm 469.0 W/m2 CLR
10:41 9.8 °C 4.3 °C 1023.6 hPa Calm     69 % 0.0 mm 490.0 W/m2 CLR
10:46 9.8 °C 4.2 °C 1023.2 hPa Calm     68 % 0.0 mm 468.0 W/m2 CLR
10:51 9.8 °C 4.4 °C 1023.6 hPa Calm     69 % 0.0 mm 359.0 W/m2 CLR
10:56 10.0 °C 4.6 °C 1023.6 hPa Calm     69 % 0.0 mm 541.0 W/m2 CLR
11:01 10.1 °C 4.4 °C 1023.2 hPa Calm     68 % 0.0 mm 554.0 W/m2 CLR
11:06 10.4 °C 4.7 °C 1023.2 hPa Calm     68 % 0.0 mm 559.0 W/m2 CLR
11:11 10.7 °C 4.8 °C 1023.2 hPa NE 5.6 km/h 5.6 km/h 67 % 0.0 mm 406.0 W/m2 CLR
11:16 10.7 °C 4.8 °C 1023.2 hPa Calm     67 % 0.0 mm 589.0 W/m2 CLR
11:21 11.0 °C 5.1 °C 1023.2 hPa East 1.9 km/h   67 % 0.0 mm 483.0 W/m2 CLR
11:26 11.2 °C 5.3 °C 1023.2 hPa Calm     67 % 0.0 mm 529.0 W/m2 CLR
11:31 11.3 °C 5.2 °C 1023.2 hPa ENE 6.4 km/h 6.4 km/h 66 % 0.0 mm 594.0 W/m2 CLR
11:36 11.5 °C 5.4 °C 1023.2 hPa NE 5.6 km/h 5.6 km/h 66 % 0.0 mm 612.0 W/m2 CLR
11:41 11.6 °C 5.4 °C 1023.2 hPa ENE 7.4 km/h 7.4 km/h 66 % 0.0 mm 598.0 W/m2 CLR
11:46 11.7 °C 5.6 °C 1023.2 hPa NE 7.4 km/h 7.4 km/h 66 % 0.0 mm 617.0 W/m2 CLR
11:51 11.9 °C 5.5 °C 1022.9 hPa East 5.6 km/h 5.6 km/h 65 % 0.0 mm 633.0 W/m2 CLR
11:56 12.2 °C 6.0 °C 1022.9 hPa ENE 6.4 km/h 6.4 km/h 66 % 0.0 mm 645.0 W/m2 CLR
12:01 12.3 °C 5.9 °C 1022.9 hPa ENE 9.3 km/h 9.3 km/h 65 % 0.0 mm 573.0 W/m2 CLR
12:06 12.3 °C 5.9 °C 1022.9 hPa East 6.4 km/h 6.4 km/h 65 % 0.0 mm 619.0 W/m2 CLR
12:11 12.6 °C 6.0 °C 1022.9 hPa ENE 7.4 km/h 7.4 km/h 64 % 0.0 mm 591.0 W/m2 CLR
12:16 12.9 °C 6.2 °C 1022.6 hPa ENE 13.0 km/h 13.0 km/h 64 % 0.0 mm 628.0 W/m2 CLR
12:21 13.0 °C 6.1 °C 1022.6 hPa NE 5.6 km/h 5.6 km/h 63 % 0.0 mm 587.0 W/m2 CLR
12:26 13.1 °C 5.7 °C 1022.6 hPa ENE 5.6 km/h 5.6 km/h 61 % 0.0 mm 566.0 W/m2 CLR
12:31 13.0 °C 5.7 °C 1022.2 hPa ENE 5.6 km/h 5.6 km/h 61 % 0.0 mm 636.0 W/m2 CLR
12:36 12.9 °C 5.8 °C 1022.2 hPa ENE 9.3 km/h 9.3 km/h 62 % 0.0 mm 657.0 W/m2 CLR
12:41 13.2 °C 5.6 °C 1022.2 hPa NE 5.6 km/h 5.6 km/h 60 % 0.0 mm 666.0 W/m2 CLR
12:46 13.5 °C 5.6 °C 1022.2 hPa ENE 5.6 km/h   59 % 0.0 mm 671.0 W/m2 CLR
12:51 13.8 °C 5.9 °C 1021.9 hPa ESE 6.4 km/h 6.4 km/h 59 % 0.0 mm 679.0 W/m2 CLR
12:56 13.9 °C 5.8 °C 1021.9 hPa Calm     58 % 0.0 mm 684.0 W/m2 CLR
13:01 14.2 °C 6.0 °C 1021.9 hPa Calm     58 % 0.0 mm 680.0 W/m2 CLR
13:06 14.5 °C 6.1 °C 1021.6 hPa Calm     57 % 0.0 mm 675.0 W/m2 CLR
13:11 14.9 °C 5.7 °C 1021.6 hPa Calm     54 % 0.0 mm 659.0 W/m2 CLR
13:16 14.9 °C 5.9 °C 1021.6 hPa NNE 6.4 km/h 6.8 km/h 55 % 0.0 mm 670.0 W/m2 CLR
13:21 14.9 °C 6.2 °C 1021.6 hPa NNW 5.6 km/h 5.6 km/h 56 % 0.0 mm 654.0 W/m2 CLR
13:26 15.1 °C 5.6 °C 1021.2 hPa NNE 7.4 km/h 7.4 km/h 53 % 0.0 mm 643.0 W/m2 CLR
13:31 15.2 °C 5.9 °C 1021.2 hPa Calm     54 % 0.0 mm 605.0 W/m2 CLR
13:36 15.3 °C 5.8 °C 1021.2 hPa East 5.6 km/h 5.6 km/h 53 % 0.0 mm 636.0 W/m2 CLR
13:41 15.1 °C 5.3 °C 1021.2 hPa NE 3.7 km/h   52 % 0.0 mm 656.0 W/m2 CLR
13:46 15.2 °C 5.7 °C 1021.2 hPa Calm     53 % 0.0 mm 649.0 W/m2 CLR
13:51 15.5 °C 6.2 °C 1020.9 hPa NE 4.8 km/h 4.8 km/h 54 % 0.0 mm 640.0 W/m2 CLR
13:56 15.6 °C 5.8 °C 1020.9 hPa NE 5.6 km/h 5.6 km/h 52 % 0.0 mm 636.0 W/m2 CLR
14:01 15.5 °C 5.9 °C 1020.9 hPa NNW 5.6 km/h 5.6 km/h 53 % 0.0 mm 631.0 W/m2 CLR
14:06 15.5 °C 5.9 °C 1020.5 hPa NE 11.1 km/h 11.1 km/h 53 % 0.0 mm 628.0 W/m2 CLR
14:11 15.6 °C 5.8 °C 1020.5 hPa ENE 11.1 km/h 11.1 km/h 52 % 0.0 mm 622.0 W/m2 CLR
14:16 15.7 °C 6.1 °C 1020.5 hPa NE 5.6 km/h 5.6 km/h 53 % 0.0 mm 621.0 W/m2 CLR
14:21 15.8 °C 5.9 °C 1020.5 hPa NE 9.3 km/h 9.3 km/h 52 % 0.0 mm 613.0 W/m2 CLR
14:26 15.8 °C 5.7 °C 1020.2 hPa ENE 7.4 km/h 7.4 km/h 51 % 0.0 mm 606.0 W/m2 CLR
14:31 15.8 °C 5.4 °C 1020.2 hPa Calm     50 % 0.0 mm 601.0 W/m2 CLR
14:36 16.1 °C 5.6 °C 1020.2 hPa Calm     50 % 0.0 mm 596.0 W/m2 CLR
14:41 16.2 °C 5.5 °C 1020.2 hPa NE 6.4 km/h 6.4 km/h 49 % 0.0 mm 589.0 W/m2 CLR
14:46 16.1 °C 5.7 °C 1019.9 hPa ENE 3.7 km/h 3.7 km/h 50 % 0.0 mm 582.0 W/m2 CLR
14:51 16.2 °C 5.4 °C 1019.9 hPa ENE 5.6 km/h   49 % 0.0 mm 575.0 W/m2 CLR
14:56 16.2 °C 6.1 °C 1019.9 hPa ENE 9.3 km/h 9.3 km/h 51 % 0.0 mm 568.0 W/m2 CLR
15:01 16.5 °C 6.1 °C 1019.9 hPa North 7.4 km/h 7.4 km/h 50 % 0.0 mm 559.0 W/m2 CLR
15:06 16.5 °C 5.7 °C 1019.9 hPa NE 11.3 km/h 11.3 km/h 49 % 0.0 mm 548.0 W/m2 CLR
15:11 16.4 °C 5.4 °C 1019.9 hPa NNE 7.4 km/h 7.4 km/h 48 % 0.0 mm 540.0 W/m2 CLR
15:16 16.6 °C 5.8 °C 1019.5 hPa ENE 11.1 km/h 11.1 km/h 49 % 0.0 mm 529.0 W/m2 CLR
15:21 16.6 °C 5.6 °C 1019.5 hPa East 11.3 km/h 11.3 km/h 48 % 0.0 mm 520.0 W/m2 CLR
15:26 16.4 °C 5.4 °C 1019.5 hPa ENE 11.3 km/h 11.3 km/h 48 % 0.0 mm 512.0 W/m2 CLR
15:32 16.4 °C 5.4 °C 1019.5 hPa NE 3.7 km/h 3.7 km/h 48 % 0.0 mm 499.0 W/m2 CLR
15:37 16.6 °C 5.2 °C 1019.5 hPa ENE 11.1 km/h 11.1 km/h 47 % 0.0 mm 490.0 W/m2 CLR
15:42 16.4 °C 5.1 °C 1019.5 hPa ENE 6.4 km/h 6.4 km/h 47 % 0.0 mm 478.0 W/m2 CLR
15:47 16.3 °C 5.0 °C 1019.2 hPa ENE 8.0 km/h 8.0 km/h 47 % 0.0 mm 466.0 W/m2 CLR
15:52 16.4 °C 4.7 °C 1019.2 hPa NE 11.3 km/h 11.3 km/h 46 % 0.0 mm 455.0 W/m2 CLR
15:57 16.5 °C 4.8 °C 1019.2 hPa NE 9.3 km/h 9.3 km/h 46 % 0.0 mm 445.0 W/m2 CLR
16:02 16.5 °C 5.2 °C 1019.2 hPa East 5.6 km/h 5.6 km/h 47 % 0.0 mm 432.0 W/m2 CLR
16:07 16.6 °C 4.9 °C 1019.2 hPa Calm     46 % 0.0 mm 418.0 W/m2 CLR
16:12 16.7 °C 5.1 °C 1019.2 hPa NNE 1.9 km/h   46 % 0.0 mm 406.0 W/m2 CLR
16:17 16.8 °C 4.4 °C 1019.2 hPa Calm     44 % 0.0 mm 394.0 W/m2 CLR
16:22 16.7 °C 5.1 °C 1018.8 hPa Calm     46 % 0.0 mm 380.0 W/m2 CLR
16:27 16.9 °C 4.9 °C 1019.2 hPa Calm     45 % 0.0 mm 369.0 W/m2 CLR
16:32 16.9 °C 4.3 °C 1018.8 hPa Calm     43 % 0.0 mm 352.0 W/m2 CLR
16:37 16.9 °C 4.2 °C 1018.8 hPa Calm     43 % 0.0 mm 339.0 W/m2 CLR
16:42 16.9 °C 4.6 °C 1018.8 hPa Calm     44 % 0.0 mm 327.0 W/m2 CLR
16:47 17.0 °C 4.7 °C 1018.8 hPa ENE 3.7 km/h 3.7 km/h 44 % 0.0 mm 313.0 W/m2 CLR
16:52 17.0 °C 4.3 °C 1018.8 hPa Calm     43 % 0.0 mm 299.0 W/m2 CLR
16:57 17.2 °C 4.5 °C 1018.8 hPa Calm     43 % 0.0 mm 281.0 W/m2 CLR
17:02 17.4 °C 4.7 °C 1018.8 hPa Calm     43 % 0.0 mm 267.0 W/m2 CLR
17:07 17.6 °C 4.5 °C 1018.8 hPa NE 3.7 km/h   42 % 0.0 mm 253.0 W/m2 CLR
17:12 17.5 °C 4.4 °C 1018.8 hPa Calm     42 % 0.0 mm 236.0 W/m2 CLR
17:17 17.4 °C 4.7 °C 1018.8 hPa Calm     43 % 0.0 mm 216.0 W/m2 CLR
17:22 17.3 °C 4.6 °C 1018.8 hPa Calm     43 % 0.0 mm 200.0 W/m2 CLR
17:27 17.3 °C 4.6 °C 1018.8 hPa Calm     43 % 0.0 mm 181.0 W/m2 CLR
17:32 17.4 °C 4.7 °C 1018.8 hPa Calm     43 % 0.0 mm 163.0 W/m2 CLR
17:37 17.4 °C 4.7 °C 1018.8 hPa Calm     43 % 0.0 mm 142.0 W/m2 CLR
17:42 17.5 °C 4.4 °C 1018.5 hPa Calm     42 % 0.0 mm 127.0 W/m2 CLR
17:47 17.6 °C 4.6 °C 1018.5 hPa Calm     42 % 0.0 mm 111.0 W/m2 CLR
17:52 17.7 °C 4.6 °C 1018.5 hPa Calm     42 % 0.0 mm 97.0 W/m2 CLR
17:57 17.5 °C 4.8 °C 1018.5 hPa Calm     43 % 0.0 mm 77.0 W/m2 FEW
18:02 17.3 °C 4.2 °C 1018.5 hPa Calm     42 % 0.0 mm 60.0 W/m2 FEW
18:07 17.1 °C 4.1 °C 1018.5 hPa Calm     42 % 0.0 mm 54.0 W/m2 SCT
18:12 16.9 °C 4.3 °C 1018.5 hPa Calm     43 % 0.0 mm 42.0 W/m2 BKN
18:17 16.8 °C 4.5 °C 1018.5 hPa Calm     44 % 0.0 mm 28.0 W/m2 BKN
18:22 16.7 °C 4.1 °C 1018.5 hPa Calm     43 % 0.0 mm 19.0 W/m2 BKN
18:27 16.6 °C 4.6 °C 1018.8 hPa Calm     45 % 0.0 mm 14.0 W/m2 BKN
18:32 16.4 °C 4.1 °C 1018.8 hPa Calm     44 % 0.0 mm 12.0 W/m2 BKN
18:37 16.2 °C 3.9 °C 1018.8 hPa Calm     44 % 0.0 mm 9.0 W/m2 BKN
18:42 16.0 °C 4.4 °C 1018.8 hPa Calm     46 % 0.0 mm 7.0 W/m2 BKN
18:47 15.6 °C 4.9 °C 1018.5 hPa Calm     49 % 0.0 mm 5.0 W/m2 OVC
18:52 15.2 °C 4.8 °C 1018.5 hPa Calm     50 % 0.0 mm 0.0 W/m2 OVC
18:57 14.8 °C 5.1 °C 1018.5 hPa Calm     52 % 0.0 mm 0.0 W/m2 OVC
19:02 14.4 °C 5.0 °C 1018.8 hPa Calm     53 % 0.0 mm 0.0 W/m2 CLR
19:07 13.9 °C 5.3 °C 1018.8 hPa Calm     56 % 0.0 mm 0.0 W/m2 CLR
19:12 13.3 °C 5.2 °C 1018.8 hPa Calm     58 % 0.0 mm 0.0 W/m2 CLR
19:17 12.8 °C 5.2 °C 1018.8 hPa Calm     60 % 0.0 mm 0.0 W/m2 CLR
19:22 12.4 °C 5.3 °C 1018.8 hPa Calm     62 % 0.0 mm 0.0 W/m2 CLR
19:27 12.1 °C 5.1 °C 1018.8 hPa Calm     62 % 0.0 mm 0.0 W/m2 CLR
19:32 11.9 °C 4.8 °C 1018.8 hPa Calm     62 % 0.0 mm 0.0 W/m2 CLR
19:33 11.8 °C 4.8 °C 1018.8 hPa Calm     62 % 0.0 mm 0.0 W/m2 CLR
19:38 11.4 °C 4.9 °C 1019.2 hPa Calm     64 % 0.0 mm 0.0 W/m2 CLR
19:43 11.0 °C 4.9 °C 1019.2 hPa Calm     66 % 0.0 mm 0.0 W/m2 CLR
19:48 10.6 °C 4.9 °C 1019.2 hPa Calm     68 % 0.0 mm 0.0 W/m2 CLR
19:53 10.2 °C 4.7 °C 1019.2 hPa Calm     69 % 0.0 mm 0.0 W/m2 CLR
19:58 9.8 °C 4.8 °C 1019.2 hPa Calm     71 % 0.0 mm 0.0 W/m2 CLR
20:03 9.6 °C 4.8 °C 1019.2 hPa Calm     72 % 0.0 mm 0.0 W/m2 CLR
20:08 9.5 °C 4.7 °C 1019.2 hPa Calm     72 % 0.0 mm 0.0 W/m2 CLR
20:13 9.3 °C 4.7 °C 1019.2 hPa Calm     73 % 0.0 mm 0.0 W/m2 CLR
20:14 9.3 °C 4.7 °C 1019.2 hPa Calm     73 % 0.0 mm 0.0 W/m2 CLR
20:19 9.1 °C 4.5 °C 1019.2 hPa Calm     73 % 0.0 mm 0.0 W/m2 CLR
20:24 8.8 °C 4.4 °C 1019.2 hPa Calm     74 % 0.0 mm 0.0 W/m2 CLR
20:29 8.6 °C 4.4 °C 1019.2 hPa Calm     75 % 0.0 mm 0.0 W/m2 CLR
20:34 8.2 °C 4.2 °C 1019.2 hPa Calm     76 % 0.0 mm 0.0 W/m2 CLR
20:39 7.9 °C 4.2 °C 1019.2 hPa Calm     77 % 0.0 mm 0.0 W/m2 CLR
20:44 7.8 °C 4.2 °C 1019.2 hPa Calm     78 % 0.0 mm 0.0 W/m2 CLR
20:49 7.7 °C 4.3 °C 1019.2 hPa Calm     79 % 0.0 mm 0.0 W/m2 CLR
20:54 7.6 °C 4.2 °C 1019.2 hPa Calm     79 % 0.0 mm 0.0 W/m2 CLR
20:59 7.5 °C 4.3 °C 1019.2 hPa Calm     80 % 0.0 mm 0.0 W/m2 CLR
21:04 7.4 °C 4.2 °C 1019.2 hPa Calm     80 % 0.0 mm 0.0 W/m2 CLR
21:09 7.2 °C 4.0 °C 1018.8 hPa Calm     80 % 0.0 mm 0.0 W/m2 CLR
21:14 7.1 °C 4.0 °C 1019.2 hPa Calm     81 % 0.0 mm 0.0 W/m2 CLR
21:19 6.9 °C 3.9 °C 1019.2 hPa Calm     81 % 0.0 mm 0.0 W/m2 CLR
21:24 6.9 °C 4.0 °C 1019.2 hPa Calm     82 % 0.0 mm 0.0 W/m2 CLR
21:29 6.8 °C 4.0 °C 1019.2 hPa Calm     82 % 0.0 mm 0.0 W/m2 CLR
21:34 6.8 °C 4.0 °C 1019.2 hPa Calm     82 % 0.0 mm 0.0 W/m2 CLR
21:39 6.8 °C 3.9 °C 1019.2 hPa Calm     82 % 0.0 mm 0.0 W/m2 CLR
21:44 6.7 °C 4.0 °C 1019.2 hPa Calm     83 % 0.0 mm 0.0 W/m2 CLR
21:49 6.5 °C 3.8 °C 1019.2 hPa Calm     83 % 0.0 mm 0.0 W/m2 CLR
21:54 6.3 °C 3.7 °C 1019.2 hPa Calm     83 % 0.0 mm 0.0 W/m2 CLR
21:59 6.3 °C 3.8 °C 1018.8 hPa Calm     84 % 0.0 mm 0.0 W/m2 CLR
22:04 6.2 °C 3.7 °C 1019.2 hPa Calm     84 % 0.0 mm 0.0 W/m2 CLR
22:09 6.2 °C 3.7 °C 1019.2 hPa Calm     84 % 0.0 mm 0.0 W/m2 CLR
22:14 6.0 °C 3.5 °C 1018.8 hPa Calm     84 % 0.0 mm 0.0 W/m2 CLR
22:19 5.9 °C 3.4 °C 1019.2 hPa Calm     84 % 0.0 mm 0.0 W/m2 CLR
22:24 5.8 °C 3.3 °C 1018.8 hPa Calm     84 % 0.0 mm 0.0 W/m2 CLR
22:25 5.8 °C 3.3 °C 1018.8 hPa Calm     84 % 0.0 mm 0.0 W/m2 CLR
22:30 5.7 °C 3.3 °C 1018.8 hPa Calm     85 % 0.0 mm 0.0 W/m2 CLR
22:35 5.6 °C 3.2 °C 1019.2 hPa Calm     85 % 0.0 mm 0.0 W/m2 CLR
22:40 5.4 °C 3.1 °C 1018.8 hPa Calm     85 % 0.0 mm 0.0 W/m2 CLR
22:45 5.3 °C 3.0 °C 1018.8 hPa Calm     85 % 0.0 mm 0.0 W/m2 CLR
22:50 5.3 °C 3.1 °C 1018.8 hPa Calm     86 % 0.0 mm 0.0 W/m2 CLR
22:55 5.2 °C 3.1 °C 1018.8 hPa Calm     86 % 0.0 mm 0.0 W/m2 CLR
23:00 5.2 °C 3.0 °C 1018.8 hPa Calm     86 % 0.0 mm 0.0 W/m2 CLR
23:05 5.1 °C 2.9 °C 1018.8 hPa Calm     86 % 0.0 mm 0.0 W/m2 CLR
23:10 5.0 °C 2.8 °C 1018.8 hPa Calm     86 % 0.0 mm 0.0 W/m2 CLR
23:15 4.9 °C 2.7 °C 1018.8 hPa Calm     86 % 0.0 mm 0.0 W/m2 CLR
23:20 4.8 °C 2.8 °C 1018.8 hPa Calm     87 % 0.0 mm 0.0 W/m2 CLR
23:25 4.7 °C 2.7 °C 1018.8 hPa Calm     87 % 0.0 mm 0.0 W/m2 CLR
23:30 4.6 °C 2.6 °C 1018.8 hPa Calm     87 % 0.0 mm 0.0 W/m2 CLR
23:35 4.6 °C 2.6 °C 1019.2 hPa Calm     87 % 0.0 mm 0.0 W/m2 CLR
23:40 4.5 °C 2.5 °C 1019.2 hPa Calm     87 % 0.0 mm 0.0 W/m2 CLR
23:45 4.4 °C 2.6 °C 1019.2 hPa Calm     88 % 0.0 mm 0.0 W/m2 CLR
23:50 4.4 °C 2.6 °C 1019.2 hPa Calm     88 % 0.0 mm 0.0 W/m2 CLR
23:55 4.5 °C 2.8 °C 1019.2 hPa Calm     89 % 0.0 mm 0.0 W/m2 CLR
Lo Temps de Massalio
Compliments of Weather Underground - 1.25 mb